sensor_id;sensor_type;location;lat;lon;timestamp;P1;durP1;ratioP1;P2;durP2;ratioP2
6422;SDS011;3244;42.708;23.288;2022-08-21T00:01:36;12.95;;;11.65;;
6422;SDS011;3244;42.708;23.288;2022-08-21T00:04:04;15.85;;;11.63;;
6422;SDS011;3244;42.708;23.288;2022-08-21T00:06:31;14.20;;;11.48;;
6422;SDS011;3244;42.708;23.288;2022-08-21T00:08:59;19.52;;;11.63;;
6422;SDS011;3244;42.708;23.288;2022-08-21T00:11:25;16.27;;;11.00;;
6422;SDS011;3244;42.708;23.288;2022-08-21T00:13:54;16.73;;;12.00;;
6422;SDS011;3244;42.708;23.288;2022-08-21T00:16:21;14.30;;;11.07;;
6422;SDS011;3244;42.708;23.288;2022-08-21T00:18:48;18.85;;;14.25;;
6422;SDS011;3244;42.708;23.288;2022-08-21T00:21:15;30.92;;;24.85;;
6422;SDS011;3244;42.708;23.288;2022-08-21T00:23:42;18.63;;;14.77;;
6422;SDS011;3244;42.708;23.288;2022-08-21T00:26:09;22.40;;;12.48;;
6422;SDS011;3244;42.708;23.288;2022-08-21T00:28:36;13.18;;;11.73;;
6422;SDS011;3244;42.708;23.288;2022-08-21T00:31:04;14.32;;;12.90;;
6422;SDS011;3244;42.708;23.288;2022-08-21T00:33:31;14.27;;;12.70;;
6422;SDS011;3244;42.708;23.288;2022-08-21T00:35:58;13.90;;;11.98;;
6422;SDS011;3244;42.708;23.288;2022-08-21T00:38:25;14.13;;;11.65;;
6422;SDS011;3244;42.708;23.288;2022-08-21T00:40:53;17.70;;;12.40;;
6422;SDS011;3244;42.708;23.288;2022-08-21T00:43:23;15.70;;;12.05;;
6422;SDS011;3244;42.708;23.288;2022-08-21T00:45:51;19.45;;;13.30;;
6422;SDS011;3244;42.708;23.288;2022-08-21T00:48:19;18.75;;;13.20;;
6422;SDS011;3244;42.708;23.288;2022-08-21T00:50:48;18.42;;;13.45;;
6422;SDS011;3244;42.708;23.288;2022-08-21T00:53:18;21.02;;;14.50;;
6422;SDS011;3244;42.708;23.288;2022-08-21T00:55:45;25.15;;;17.05;;
6422;SDS011;3244;42.708;23.288;2022-08-21T00:58:13;26.65;;;20.65;;
6422;SDS011;3244;42.708;23.288;2022-08-21T01:00:42;17.67;;;15.02;;
6422;SDS011;3244;42.708;23.288;2022-08-21T01:03:13;15.23;;;12.23;;
6422;SDS011;3244;42.708;23.288;2022-08-21T01:05:44;15.60;;;14.00;;
6422;SDS011;3244;42.708;23.288;2022-08-21T01:08:11;12.25;;;10.68;;
6422;SDS011;3244;42.708;23.288;2022-08-21T01:10:40;14.07;;;10.98;;
6422;SDS011;3244;42.708;23.288;2022-08-21T01:13:07;15.18;;;10.88;;
6422;SDS011;3244;42.708;23.288;2022-08-21T01:15:38;13.93;;;11.68;;
6422;SDS011;3244;42.708;23.288;2022-08-21T01:18:09;11.73;;;10.60;;
6422;SDS011;3244;42.708;23.288;2022-08-21T01:20:37;14.10;;;11.50;;
6422;SDS011;3244;42.708;23.288;2022-08-21T01:23:06;12.13;;;10.35;;
6422;SDS011;3244;42.708;23.288;2022-08-21T01:25:33;11.65;;;10.15;;
6422;SDS011;3244;42.708;23.288;2022-08-21T01:28:01;11.43;;;10.27;;
6422;SDS011;3244;42.708;23.288;2022-08-21T01:30:39;13.43;;;9.85;;
6422;SDS011;3244;42.708;23.288;2022-08-21T01:33:08;13.32;;;11.02;;
6422;SDS011;3244;42.708;23.288;2022-08-21T01:35:35;13.45;;;10.70;;
6422;SDS011;3244;42.708;23.288;2022-08-21T01:38:03;11.85;;;10.55;;
6422;SDS011;3244;42.708;23.288;2022-08-21T01:40:31;10.77;;;8.85;;
6422;SDS011;3244;42.708;23.288;2022-08-21T01:42:58;12.85;;;10.20;;
6422;SDS011;3244;42.708;23.288;2022-08-21T01:45:25;13.38;;;10.02;;
6422;SDS011;3244;42.708;23.288;2022-08-21T01:47:52;12.82;;;10.25;;
6422;SDS011;3244;42.708;23.288;2022-08-21T01:50:19;10.02;;;9.23;;
6422;SDS011;3244;42.708;23.288;2022-08-21T01:52:47;16.25;;;9.85;;
6422;SDS011;3244;42.708;23.288;2022-08-21T01:55:15;12.20;;;9.30;;
6422;SDS011;3244;42.708;23.288;2022-08-21T01:57:45;11.18;;;9.55;;
6422;SDS011;3244;42.708;23.288;2022-08-21T02:00:13;9.45;;;8.50;;
6422;SDS011;3244;42.708;23.288;2022-08-21T02:02:43;8.18;;;7.47;;
6422;SDS011;3244;42.708;23.288;2022-08-21T02:05:11;7.03;;;6.30;;
6422;SDS011;3244;42.708;23.288;2022-08-21T02:07:39;11.18;;;5.90;;
6422;SDS011;3244;42.708;23.288;2022-08-21T02:10:08;7.20;;;6.63;;
6422;SDS011;3244;42.708;23.288;2022-08-21T02:12:36;11.07;;;6.82;;
6422;SDS011;3244;42.708;23.288;2022-08-21T02:15:05;7.35;;;6.47;;
6422;SDS011;3244;42.708;23.288;2022-08-21T02:17:38;13.80;;;6.80;;
6422;SDS011;3244;42.708;23.288;2022-08-21T02:20:07;8.00;;;6.80;;
6422;SDS011;3244;42.708;23.288;2022-08-21T02:22:34;7.10;;;6.47;;
6422;SDS011;3244;42.708;23.288;2022-08-21T02:25:01;10.80;;;7.13;;
6422;SDS011;3244;42.708;23.288;2022-08-21T02:27:29;7.65;;;6.75;;
6422;SDS011;3244;42.708;23.288;2022-08-21T02:29:56;16.52;;;7.25;;
6422;SDS011;3244;42.708;23.288;2022-08-21T02:32:25;9.10;;;7.55;;
6422;SDS011;3244;42.708;23.288;2022-08-21T02:34:52;8.05;;;6.82;;
6422;SDS011;3244;42.708;23.288;2022-08-21T02:37:19;10.27;;;7.75;;
6422;SDS011;3244;42.708;23.288;2022-08-21T02:39:46;7.70;;;6.95;;
6422;SDS011;3244;42.708;23.288;2022-08-21T02:42:13;11.48;;;8.63;;
6422;SDS011;3244;42.708;23.288;2022-08-21T02:44:39;10.48;;;7.35;;
6422;SDS011;3244;42.708;23.288;2022-08-21T02:47:06;8.45;;;7.57;;
6422;SDS011;3244;42.708;23.288;2022-08-21T02:49:34;15.30;;;9.85;;
6422;SDS011;3244;42.708;23.288;2022-08-21T02:52:01;12.15;;;9.85;;
6422;SDS011;3244;42.708;23.288;2022-08-21T02:54:30;11.32;;;9.38;;
6422;SDS011;3244;42.708;23.288;2022-08-21T02:56:57;11.02;;;8.88;;
6422;SDS011;3244;42.708;23.288;2022-08-21T02:59:24;9.52;;;8.63;;
6422;SDS011;3244;42.708;23.288;2022-08-21T03:01:51;8.73;;;7.85;;
6422;SDS011;3244;42.708;23.288;2022-08-21T03:04:17;8.82;;;8.13;;
6422;SDS011;3244;42.708;23.288;2022-08-21T03:06:46;17.20;;;9.93;;
6422;SDS011;3244;42.708;23.288;2022-08-21T03:09:13;11.15;;;9.98;;
6422;SDS011;3244;42.708;23.288;2022-08-21T03:11:40;9.82;;;8.85;;
6422;SDS011;3244;42.708;23.288;2022-08-21T03:14:06;11.27;;;10.30;;
6422;SDS011;3244;42.708;23.288;2022-08-21T03:16:33;10.70;;;9.70;;
6422;SDS011;3244;42.708;23.288;2022-08-21T03:19:00;13.40;;;10.57;;
6422;SDS011;3244;42.708;23.288;2022-08-21T03:21:27;20.05;;;10.77;;
6422;SDS011;3244;42.708;23.288;2022-08-21T03:23:55;13.25;;;9.40;;
6422;SDS011;3244;42.708;23.288;2022-08-21T03:26:22;11.18;;;10.02;;
6422;SDS011;3244;42.708;23.288;2022-08-21T03:28:49;9.05;;;8.15;;
6422;SDS011;3244;42.708;23.288;2022-08-21T03:31:16;10.18;;;8.68;;
6422;SDS011;3244;42.708;23.288;2022-08-21T03:33:43;10.90;;;8.93;;
6422;SDS011;3244;42.708;23.288;2022-08-21T03:36:11;11.93;;;8.32;;
6422;SDS011;3244;42.708;23.288;2022-08-21T03:38:39;13.07;;;8.73;;
6422;SDS011;3244;42.708;23.288;2022-08-21T03:41:07;15.02;;;9.55;;
6422;SDS011;3244;42.708;23.288;2022-08-21T03:43:34;12.27;;;9.93;;
6422;SDS011;3244;42.708;23.288;2022-08-21T03:46:02;12.55;;;9.25;;
6422;SDS011;3244;42.708;23.288;2022-08-21T03:48:30;10.77;;;9.75;;
6422;SDS011;3244;42.708;23.288;2022-08-21T03:50:57;12.95;;;10.85;;
6422;SDS011;3244;42.708;23.288;2022-08-21T03:53:23;15.73;;;12.38;;
6422;SDS011;3244;42.708;23.288;2022-08-21T03:55:52;14.60;;;13.15;;
6422;SDS011;3244;42.708;23.288;2022-08-21T03:58:21;18.10;;;13.48;;
6422;SDS011;3244;42.708;23.288;2022-08-21T04:00:51;18.90;;;16.15;;
6422;SDS011;3244;42.708;23.288;2022-08-21T04:03:20;21.70;;;16.08;;
6422;SDS011;3244;42.708;23.288;2022-08-21T04:05:47;31.42;;;25.92;;
6422;SDS011;3244;42.708;23.288;2022-08-21T04:08:14;25.10;;;22.40;;
6422;SDS011;3244;42.708;23.288;2022-08-21T04:10:44;28.42;;;22.48;;
6422;SDS011;3244;42.708;23.288;2022-08-21T04:13:12;27.50;;;20.92;;
6422;SDS011;3244;42.708;23.288;2022-08-21T04:15:42;24.75;;;19.83;;
6422;SDS011;3244;42.708;23.288;2022-08-21T04:18:09;27.50;;;20.35;;
6422;SDS011;3244;42.708;23.288;2022-08-21T04:20:36;31.40;;;19.83;;
6422;SDS011;3244;42.708;23.288;2022-08-21T04:23:03;25.00;;;20.10;;
6422;SDS011;3244;42.708;23.288;2022-08-21T04:25:30;25.65;;;19.00;;
6422;SDS011;3244;42.708;23.288;2022-08-21T04:27:57;26.60;;;19.27;;
6422;SDS011;3244;42.708;23.288;2022-08-21T04:30:24;27.10;;;18.98;;
6422;SDS011;3244;42.708;23.288;2022-08-21T04:32:52;25.25;;;18.63;;
6422;SDS011;3244;42.708;23.288;2022-08-21T04:35:20;25.30;;;16.65;;
6422;SDS011;3244;42.708;23.288;2022-08-21T04:37:48;24.65;;;16.60;;
6422;SDS011;3244;42.708;23.288;2022-08-21T04:40:16;23.77;;;16.45;;
6422;SDS011;3244;42.708;23.288;2022-08-21T04:42:45;23.52;;;15.48;;
6422;SDS011;3244;42.708;23.288;2022-08-21T04:45:16;19.75;;;15.88;;
6422;SDS011;3244;42.708;23.288;2022-08-21T04:47:46;18.00;;;15.23;;
6422;SDS011;3244;42.708;23.288;2022-08-21T04:50:15;17.65;;;14.32;;
6422;SDS011;3244;42.708;23.288;2022-08-21T04:52:42;17.83;;;13.90;;
6422;SDS011;3244;42.708;23.288;2022-08-21T04:55:09;17.90;;;14.93;;
6422;SDS011;3244;42.708;23.288;2022-08-21T04:57:37;18.08;;;15.30;;
6422;SDS011;3244;42.708;23.288;2022-08-21T05:00:06;18.83;;;15.55;;
6422;SDS011;3244;42.708;23.288;2022-08-21T05:02:35;22.10;;;15.50;;
6422;SDS011;3244;42.708;23.288;2022-08-21T05:05:03;16.73;;;14.98;;
6422;SDS011;3244;42.708;23.288;2022-08-21T05:07:32;17.55;;;13.10;;
6422;SDS011;3244;42.708;23.288;2022-08-21T05:10:00;14.65;;;9.98;;
6422;SDS011;3244;42.708;23.288;2022-08-21T05:12:27;17.58;;;9.30;;
6422;SDS011;3244;42.708;23.288;2022-08-21T05:14:54;13.15;;;9.65;;
6422;SDS011;3244;42.708;23.288;2022-08-21T05:17:21;10.95;;;9.10;;
6422;SDS011;3244;42.708;23.288;2022-08-21T05:19:48;9.23;;;8.32;;
6422;SDS011;3244;42.708;23.288;2022-08-21T05:22:18;16.67;;;8.70;;
6422;SDS011;3244;42.708;23.288;2022-08-21T05:24:47;10.30;;;9.23;;
6422;SDS011;3244;42.708;23.288;2022-08-21T05:27:14;12.43;;;9.50;;
6422;SDS011;3244;42.708;23.288;2022-08-21T05:29:41;9.68;;;8.85;;
6422;SDS011;3244;42.708;23.288;2022-08-21T05:32:09;10.15;;;9.07;;
6422;SDS011;3244;42.708;23.288;2022-08-21T05:34:36;11.73;;;8.90;;
6422;SDS011;3244;42.708;23.288;2022-08-21T05:37:03;9.55;;;8.63;;
6422;SDS011;3244;42.708;23.288;2022-08-21T05:39:30;11.52;;;9.35;;
6422;SDS011;3244;42.708;23.288;2022-08-21T05:41:59;14.45;;;9.15;;
6422;SDS011;3244;42.708;23.288;2022-08-21T05:44:26;9.45;;;8.57;;
6422;SDS011;3244;42.708;23.288;2022-08-21T05:46:53;8.82;;;8.02;;
6422;SDS011;3244;42.708;23.288;2022-08-21T05:49:19;15.30;;;9.95;;
6422;SDS011;3244;42.708;23.288;2022-08-21T05:51:46;12.45;;;9.73;;
6422;SDS011;3244;42.708;23.288;2022-08-21T05:54:13;9.30;;;8.38;;
6422;SDS011;3244;42.708;23.288;2022-08-21T05:56:39;12.23;;;10.73;;
6422;SDS011;3244;42.708;23.288;2022-08-21T05:59:10;14.32;;;10.30;;
6422;SDS011;3244;42.708;23.288;2022-08-21T06:01:38;12.98;;;9.80;;
6422;SDS011;3244;42.708;23.288;2022-08-21T06:04:06;11.82;;;8.77;;
6422;SDS011;3244;42.708;23.288;2022-08-21T06:06:33;10.43;;;9.43;;
6422;SDS011;3244;42.708;23.288;2022-08-21T06:09:01;12.93;;;8.32;;
6422;SDS011;3244;42.708;23.288;2022-08-21T06:11:28;13.23;;;9.55;;
6422;SDS011;3244;42.708;23.288;2022-08-21T06:13:55;20.00;;;10.55;;
6422;SDS011;3244;42.708;23.288;2022-08-21T06:16:23;15.07;;;9.77;;
6422;SDS011;3244;42.708;23.288;2022-08-21T06:18:50;15.30;;;10.65;;
6422;SDS011;3244;42.708;23.288;2022-08-21T06:21:17;12.77;;;11.48;;
6422;SDS011;3244;42.708;23.288;2022-08-21T06:23:45;11.35;;;10.23;;
6422;SDS011;3244;42.708;23.288;2022-08-21T06:26:13;14.25;;;11.98;;
6422;SDS011;3244;42.708;23.288;2022-08-21T06:28:40;15.40;;;13.20;;
6422;SDS011;3244;42.708;23.288;2022-08-21T06:31:11;16.42;;;13.18;;
6422;SDS011;3244;42.708;23.288;2022-08-21T06:33:41;15.60;;;10.65;;
6422;SDS011;3244;42.708;23.288;2022-08-21T06:36:08;16.50;;;11.30;;
6422;SDS011;3244;42.708;23.288;2022-08-21T06:38:35;10.90;;;9.50;;
6422;SDS011;3244;42.708;23.288;2022-08-21T06:41:02;10.32;;;8.63;;
6422;SDS011;3244;42.708;23.288;2022-08-21T06:43:30;12.57;;;11.00;;
6422;SDS011;3244;42.708;23.288;2022-08-21T06:45:56;19.75;;;12.48;;
6422;SDS011;3244;42.708;23.288;2022-08-21T06:48:23;15.90;;;12.98;;
6422;SDS011;3244;42.708;23.288;2022-08-21T06:50:51;16.35;;;13.02;;
6422;SDS011;3244;42.708;23.288;2022-08-21T06:53:19;13.75;;;11.73;;
6422;SDS011;3244;42.708;23.288;2022-08-21T06:55:47;13.63;;;11.57;;
6422;SDS011;3244;42.708;23.288;2022-08-21T06:58:15;13.55;;;11.15;;
6422;SDS011;3244;42.708;23.288;2022-08-21T07:00:43;20.73;;;13.63;;
6422;SDS011;3244;42.708;23.288;2022-08-21T07:03:19;15.98;;;13.77;;
6422;SDS011;3244;42.708;23.288;2022-08-21T07:05:47;14.50;;;11.02;;
6422;SDS011;3244;42.708;23.288;2022-08-21T07:08:16;13.40;;;11.52;;
6422;SDS011;3244;42.708;23.288;2022-08-21T07:10:43;17.17;;;13.15;;
6422;SDS011;3244;42.708;23.288;2022-08-21T07:13:10;19.73;;;13.35;;
6422;SDS011;3244;42.708;23.288;2022-08-21T07:15:37;12.75;;;11.45;;
6422;SDS011;3244;42.708;23.288;2022-08-21T07:18:04;14.00;;;11.73;;
6422;SDS011;3244;42.708;23.288;2022-08-21T07:20:31;16.48;;;12.13;;
6422;SDS011;3244;42.708;23.288;2022-08-21T07:22:59;12.23;;;11.02;;
6422;SDS011;3244;42.708;23.288;2022-08-21T07:25:30;13.77;;;12.40;;
6422;SDS011;3244;42.708;23.288;2022-08-21T07:27:57;16.48;;;11.73;;
6422;SDS011;3244;42.708;23.288;2022-08-21T07:30:24;12.77;;;11.27;;
6422;SDS011;3244;42.708;23.288;2022-08-21T07:32:51;12.48;;;10.82;;
6422;SDS011;3244;42.708;23.288;2022-08-21T07:35:18;13.95;;;10.20;;
6422;SDS011;3244;42.708;23.288;2022-08-21T07:37:46;14.07;;;11.10;;
6422;SDS011;3244;42.708;23.288;2022-08-21T07:40:13;17.25;;;12.10;;
6422;SDS011;3244;42.708;23.288;2022-08-21T07:42:44;16.33;;;11.50;;
6422;SDS011;3244;42.708;23.288;2022-08-21T07:45:13;14.52;;;10.93;;
6422;SDS011;3244;42.708;23.288;2022-08-21T07:47:40;15.20;;;12.15;;
6422;SDS011;3244;42.708;23.288;2022-08-21T07:50:07;15.07;;;12.20;;
6422;SDS011;3244;42.708;23.288;2022-08-21T07:52:34;14.30;;;11.57;;
6422;SDS011;3244;42.708;23.288;2022-08-21T07:55:01;14.15;;;9.88;;
6422;SDS011;3244;42.708;23.288;2022-08-21T07:57:27;11.50;;;10.32;;
6422;SDS011;3244;42.708;23.288;2022-08-21T07:59:56;11.55;;;10.00;;
6422;SDS011;3244;42.708;23.288;2022-08-21T08:02:23;12.30;;;10.27;;
6422;SDS011;3244;42.708;23.288;2022-08-21T08:04:50;12.98;;;10.98;;
6422;SDS011;3244;42.708;23.288;2022-08-21T08:07:17;14.70;;;10.38;;
6422;SDS011;3244;42.708;23.288;2022-08-21T08:09:44;11.88;;;10.38;;
6422;SDS011;3244;42.708;23.288;2022-08-21T08:12:11;11.77;;;9.45;;
6422;SDS011;3244;42.708;23.288;2022-08-21T08:14:37;12.07;;;9.00;;
6422;SDS011;3244;42.708;23.288;2022-08-21T08:17:05;11.07;;;9.88;;
6422;SDS011;3244;42.708;23.288;2022-08-21T08:19:32;10.43;;;9.48;;
6422;SDS011;3244;42.708;23.288;2022-08-21T08:21:59;13.10;;;9.70;;
6422;SDS011;3244;42.708;23.288;2022-08-21T08:24:26;10.98;;;9.80;;
6422;SDS011;3244;42.708;23.288;2022-08-21T08:26:53;13.45;;;10.02;;
6422;SDS011;3244;42.708;23.288;2022-08-21T08:29:22;12.70;;;9.35;;
6422;SDS011;3244;42.708;23.288;2022-08-21T08:31:48;15.30;;;10.13;;
6422;SDS011;3244;42.708;23.288;2022-08-21T08:34:17;14.70;;;10.00;;
6422;SDS011;3244;42.708;23.288;2022-08-21T08:36:44;12.32;;;9.48;;
6422;SDS011;3244;42.708;23.288;2022-08-21T08:39:11;10.18;;;9.25;;
6422;SDS011;3244;42.708;23.288;2022-08-21T08:41:38;9.57;;;8.65;;
6422;SDS011;3244;42.708;23.288;2022-08-21T08:44:07;11.23;;;8.60;;
6422;SDS011;3244;42.708;23.288;2022-08-21T08:46:35;12.20;;;8.68;;
6422;SDS011;3244;42.708;23.288;2022-08-21T08:49:06;10.73;;;7.50;;
6422;SDS011;3244;42.708;23.288;2022-08-21T08:51:42;11.05;;;9.50;;
6422;SDS011;3244;42.708;23.288;2022-08-21T08:54:12;14.93;;;10.90;;
6422;SDS011;3244;42.708;23.288;2022-08-21T08:56:43;11.13;;;9.15;;
6422;SDS011;3244;42.708;23.288;2022-08-21T08:59:13;12.30;;;9.85;;
6422;SDS011;3244;42.708;23.288;2022-08-21T09:01:44;10.48;;;8.82;;
6422;SDS011;3244;42.708;23.288;2022-08-21T09:04:11;12.82;;;8.25;;
6422;SDS011;3244;42.708;23.288;2022-08-21T09:06:46;14.80;;;11.02;;
6422;SDS011;3244;42.708;23.288;2022-08-21T09:09:25;19.60;;;13.13;;
6422;SDS011;3244;42.708;23.288;2022-08-21T09:12:02;12.70;;;7.55;;
6422;SDS011;3244;42.708;23.288;2022-08-21T09:14:39;15.85;;;7.60;;
6422;SDS011;3244;42.708;23.288;2022-08-21T09:17:19;15.20;;;8.13;;
6422;SDS011;3244;42.708;23.288;2022-08-21T09:20:12;10.45;;;7.15;;
6422;SDS011;3244;42.708;23.288;2022-08-21T09:22:49;9.55;;;7.15;;
6422;SDS011;3244;42.708;23.288;2022-08-21T09:25:26;8.15;;;6.70;;
6422;SDS011;3244;42.708;23.288;2022-08-21T09:27:56;8.00;;;6.72;;
6422;SDS011;3244;42.708;23.288;2022-08-21T09:30:24;8.23;;;7.40;;
6422;SDS011;3244;42.708;23.288;2022-08-21T09:32:53;9.05;;;7.07;;
6422;SDS011;3244;42.708;23.288;2022-08-21T09:35:20;12.32;;;7.55;;
6422;SDS011;3244;42.708;23.288;2022-08-21T09:37:51;12.13;;;7.38;;
6422;SDS011;3244;42.708;23.288;2022-08-21T09:40:29;8.52;;;6.85;;
6422;SDS011;3244;42.708;23.288;2022-08-21T09:42:59;12.13;;;6.85;;
6422;SDS011;3244;42.708;23.288;2022-08-21T09:45:28;12.73;;;9.80;;
6422;SDS011;3244;42.708;23.288;2022-08-21T09:47:56;8.57;;;6.82;;
6422;SDS011;3244;42.708;23.288;2022-08-21T09:50:34;9.95;;;6.90;;
6422;SDS011;3244;42.708;23.288;2022-08-21T09:53:03;7.25;;;6.55;;
6422;SDS011;3244;42.708;23.288;2022-08-21T09:55:31;12.07;;;7.22;;
6422;SDS011;3244;42.708;23.288;2022-08-21T09:58:18;10.60;;;6.28;;
6422;SDS011;3244;42.708;23.288;2022-08-21T10:00:56;9.93;;;7.18;;
6422;SDS011;3244;42.708;23.288;2022-08-21T10:03:24;11.70;;;7.50;;
6422;SDS011;3244;42.708;23.288;2022-08-21T10:05:54;11.60;;;8.77;;
6422;SDS011;3244;42.708;23.288;2022-08-21T10:08:25;9.55;;;7.13;;
6422;SDS011;3244;42.708;23.288;2022-08-21T10:10:54;16.92;;;7.53;;
6422;SDS011;3244;42.708;23.288;2022-08-21T10:13:25;11.35;;;7.88;;
6422;SDS011;3244;42.708;23.288;2022-08-21T10:16:05;7.07;;;6.38;;
6422;SDS011;3244;42.708;23.288;2022-08-21T10:18:41;15.60;;;5.22;;
6422;SDS011;3244;42.708;23.288;2022-08-21T10:21:14;8.07;;;6.25;;
6422;SDS011;3244;42.708;23.288;2022-08-21T10:23:54;9.13;;;6.07;;
6422;SDS011;3244;42.708;23.288;2022-08-21T10:26:37;9.40;;;6.32;;
6422;SDS011;3244;42.708;23.288;2022-08-21T10:29:14;6.97;;;5.75;;
6422;SDS011;3244;42.708;23.288;2022-08-21T10:31:54;8.23;;;6.50;;
6422;SDS011;3244;42.708;23.288;2022-08-21T10:34:31;10.93;;;5.90;;
6422;SDS011;3244;42.708;23.288;2022-08-21T10:37:07;13.18;;;6.53;;
6422;SDS011;3244;42.708;23.288;2022-08-21T10:39:55;9.32;;;6.82;;
6422;SDS011;3244;42.708;23.288;2022-08-21T10:42:35;9.02;;;6.65;;
6422;SDS011;3244;42.708;23.288;2022-08-21T10:45:15;11.68;;;6.85;;
6422;SDS011;3244;42.708;23.288;2022-08-21T10:47:52;11.35;;;7.13;;
6422;SDS011;3244;42.708;23.288;2022-08-21T10:50:25;12.48;;;7.85;;
6422;SDS011;3244;42.708;23.288;2022-08-21T10:53:05;10.13;;;6.25;;
6422;SDS011;3244;42.708;23.288;2022-08-21T10:55:44;12.15;;;6.15;;
6422;SDS011;3244;42.708;23.288;2022-08-21T10:58:22;12.30;;;6.95;;
6422;SDS011;3244;42.708;23.288;2022-08-21T11:00:55;9.70;;;6.00;;
6422;SDS011;3244;42.708;23.288;2022-08-21T11:03:29;7.25;;;6.20;;
6422;SDS011;3244;42.708;23.288;2022-08-21T11:06:00;12.48;;;6.68;;
6422;SDS011;3244;42.708;23.288;2022-08-21T11:08:33;8.02;;;6.10;;
6422;SDS011;3244;42.708;23.288;2022-08-21T11:11:08;9.30;;;7.53;;
6422;SDS011;3244;42.708;23.288;2022-08-21T11:13:39;6.78;;;6.05;;
6422;SDS011;3244;42.708;23.288;2022-08-21T11:16:12;7.03;;;6.30;;
6422;SDS011;3244;42.708;23.288;2022-08-21T11:18:45;11.10;;;7.05;;
6422;SDS011;3244;42.708;23.288;2022-08-21T11:21:20;8.52;;;7.72;;
6422;SDS011;3244;42.708;23.288;2022-08-21T11:23:57;7.78;;;5.82;;
6422;SDS011;3244;42.708;23.288;2022-08-21T11:26:32;9.68;;;6.03;;
6422;SDS011;3244;42.708;23.288;2022-08-21T11:29:08;7.90;;;7.05;;
6422;SDS011;3244;42.708;23.288;2022-08-21T11:31:44;11.07;;;6.03;;
6422;SDS011;3244;42.708;23.288;2022-08-21T11:34:28;7.00;;;6.25;;
6422;SDS011;3244;42.708;23.288;2022-08-21T11:37:16;6.68;;;5.97;;
6422;SDS011;3244;42.708;23.288;2022-08-21T11:39:53;10.52;;;7.03;;
6422;SDS011;3244;42.708;23.288;2022-08-21T11:42:28;10.35;;;8.85;;
6422;SDS011;3244;42.708;23.288;2022-08-21T11:47:41;16.23;;;5.95;;
6422;SDS011;3244;42.708;23.288;2022-08-21T11:50:18;9.73;;;6.63;;
6422;SDS011;3244;42.708;23.288;2022-08-21T11:52:50;7.05;;;6.35;;
6422;SDS011;3244;42.708;23.288;2022-08-21T11:55:23;7.10;;;6.18;;
6422;SDS011;3244;42.708;23.288;2022-08-21T11:57:58;10.18;;;6.13;;
6422;SDS011;3244;42.708;23.288;2022-08-21T12:00:29;6.40;;;5.80;;
6422;SDS011;3244;42.708;23.288;2022-08-21T12:03:05;11.07;;;6.07;;
6422;SDS011;3244;42.708;23.288;2022-08-21T12:05:36;8.48;;;7.78;;
6422;SDS011;3244;42.708;23.288;2022-08-21T12:08:09;8.18;;;5.32;;
6422;SDS011;3244;42.708;23.288;2022-08-21T12:10:38;8.60;;;6.22;;
6422;SDS011;3244;42.708;23.288;2022-08-21T12:13:10;8.00;;;5.30;;
6422;SDS011;3244;42.708;23.288;2022-08-21T12:15:47;7.30;;;5.47;;
6422;SDS011;3244;42.708;23.288;2022-08-21T12:18:22;5.13;;;4.57;;
6422;SDS011;3244;42.708;23.288;2022-08-21T12:21:03;6.22;;;4.90;;
6422;SDS011;3244;42.708;23.288;2022-08-21T12:23:44;6.20;;;4.90;;
6422;SDS011;3244;42.708;23.288;2022-08-21T12:26:18;9.68;;;5.32;;
6422;SDS011;3244;42.708;23.288;2022-08-21T12:28:51;7.95;;;6.00;;
6422;SDS011;3244;42.708;23.288;2022-08-21T12:31:28;7.45;;;4.82;;
6422;SDS011;3244;42.708;23.288;2022-08-21T12:33:56;7.63;;;4.93;;
6422;SDS011;3244;42.708;23.288;2022-08-21T12:36:27;5.45;;;5.05;;
6422;SDS011;3244;42.708;23.288;2022-08-21T12:39:04;10.27;;;6.10;;
6422;SDS011;3244;42.708;23.288;2022-08-21T12:41:40;5.90;;;5.35;;
6422;SDS011;3244;42.708;23.288;2022-08-21T12:44:14;5.68;;;5.10;;
6422;SDS011;3244;42.708;23.288;2022-08-21T12:46:48;7.05;;;5.72;;
6422;SDS011;3244;42.708;23.288;2022-08-21T12:49:25;6.63;;;6.05;;
6422;SDS011;3244;42.708;23.288;2022-08-21T12:52:00;6.68;;;6.15;;
6422;SDS011;3244;42.708;23.288;2022-08-21T12:54:32;8.23;;;5.75;;
6422;SDS011;3244;42.708;23.288;2022-08-21T12:57:05;13.50;;;6.32;;
6422;SDS011;3244;42.708;23.288;2022-08-21T12:59:38;6.70;;;5.82;;
6422;SDS011;3244;42.708;23.288;2022-08-21T13:02:10;10.55;;;5.40;;
6422;SDS011;3244;42.708;23.288;2022-08-21T13:04:43;7.28;;;6.03;;
6422;SDS011;3244;42.708;23.288;2022-08-21T13:07:11;6.20;;;5.65;;
6422;SDS011;3244;42.708;23.288;2022-08-21T13:09:43;7.20;;;5.80;;
6422;SDS011;3244;42.708;23.288;2022-08-21T13:12:14;6.80;;;5.93;;
6422;SDS011;3244;42.708;23.288;2022-08-21T13:14:44;5.97;;;5.32;;
6422;SDS011;3244;42.708;23.288;2022-08-21T13:17:12;7.35;;;6.60;;
6422;SDS011;3244;42.708;23.288;2022-08-21T13:19:42;6.10;;;5.47;;
6422;SDS011;3244;42.708;23.288;2022-08-21T13:22:19;8.40;;;6.00;;
6422;SDS011;3244;42.708;23.288;2022-08-21T13:24:46;7.95;;;5.07;;
6422;SDS011;3244;42.708;23.288;2022-08-21T13:27:22;5.75;;;5.13;;
6422;SDS011;3244;42.708;23.288;2022-08-21T13:30:06;6.13;;;5.53;;
6422;SDS011;3244;42.708;23.288;2022-08-21T13:32:37;5.70;;;5.28;;
6422;SDS011;3244;42.708;23.288;2022-08-21T13:35:09;6.10;;;5.53;;
6422;SDS011;3244;42.708;23.288;2022-08-21T13:37:38;5.78;;;5.28;;
6422;SDS011;3244;42.708;23.288;2022-08-21T13:40:07;7.05;;;5.40;;
6422;SDS011;3244;42.708;23.288;2022-08-21T13:42:37;6.53;;;5.90;;
6422;SDS011;3244;42.708;23.288;2022-08-21T13:45:11;9.55;;;5.53;;
6422;SDS011;3244;42.708;23.288;2022-08-21T13:47:40;7.05;;;4.63;;
6422;SDS011;3244;42.708;23.288;2022-08-21T13:50:07;6.03;;;4.60;;
6422;SDS011;3244;42.708;23.288;2022-08-21T13:52:44;5.38;;;4.75;;
6422;SDS011;3244;42.708;23.288;2022-08-21T13:55:15;5.18;;;4.72;;
6422;SDS011;3244;42.708;23.288;2022-08-21T13:57:43;8.32;;;4.53;;
6422;SDS011;3244;42.708;23.288;2022-08-21T14:00:13;5.35;;;4.40;;
6422;SDS011;3244;42.708;23.288;2022-08-21T14:02:42;6.28;;;4.55;;
6422;SDS011;3244;42.708;23.288;2022-08-21T14:05:14;6.10;;;5.30;;
6422;SDS011;3244;42.708;23.288;2022-08-21T14:07:45;6.38;;;4.90;;
6422;SDS011;3244;42.708;23.288;2022-08-21T14:10:15;12.88;;;4.63;;
6422;SDS011;3244;42.708;23.288;2022-08-21T14:12:46;9.70;;;4.43;;
6422;SDS011;3244;42.708;23.288;2022-08-21T14:15:17;6.55;;;4.68;;
6422;SDS011;3244;42.708;23.288;2022-08-21T14:17:49;7.55;;;5.15;;
6422;SDS011;3244;42.708;23.288;2022-08-21T14:20:25;11.93;;;5.05;;
6422;SDS011;3244;42.708;23.288;2022-08-21T14:22:55;9.48;;;4.40;;
6422;SDS011;3244;42.708;23.288;2022-08-21T14:25:29;11.20;;;4.93;;
6422;SDS011;3244;42.708;23.288;2022-08-21T14:28:03;7.50;;;5.60;;
6422;SDS011;3244;42.708;23.288;2022-08-21T14:30:42;5.65;;;4.45;;
6422;SDS011;3244;42.708;23.288;2022-08-21T14:33:10;7.45;;;5.43;;
6422;SDS011;3244;42.708;23.288;2022-08-21T14:35:39;8.68;;;5.53;;
6422;SDS011;3244;42.708;23.288;2022-08-21T14:38:11;5.43;;;4.95;;
6422;SDS011;3244;42.708;23.288;2022-08-21T14:40:39;6.97;;;5.32;;
6422;SDS011;3244;42.708;23.288;2022-08-21T14:43:06;6.50;;;4.82;;
6422;SDS011;3244;42.708;23.288;2022-08-21T14:45:34;7.18;;;5.45;;
6422;SDS011;3244;42.708;23.288;2022-08-21T14:48:05;6.82;;;5.85;;
6422;SDS011;3244;42.708;23.288;2022-08-21T14:50:32;9.52;;;5.97;;
6422;SDS011;3244;42.708;23.288;2022-08-21T14:52:58;16.25;;;10.55;;
6422;SDS011;3244;42.708;23.288;2022-08-21T14:55:25;14.40;;;12.88;;
6422;SDS011;3244;42.708;23.288;2022-08-21T14:57:53;9.57;;;7.15;;
6422;SDS011;3244;42.708;23.288;2022-08-21T15:00:22;8.43;;;6.20;;
6422;SDS011;3244;42.708;23.288;2022-08-21T15:02:50;7.28;;;5.93;;
6422;SDS011;3244;42.708;23.288;2022-08-21T15:05:18;7.50;;;6.07;;
6422;SDS011;3244;42.708;23.288;2022-08-21T15:07:45;10.77;;;6.15;;